Flight Track Log - Related Links

Times and Time Zones

All times are in EDT time to prevent confusion due to time zone crossing. See the N704JM flight status page for this flight to view local times or setup timezone preferences in your user account.

Time Position Orientation Groundspeed Altitude Reporting Facility
EDT Latitude Longitude Course Direction KTS MPH feet Rate Location/Type
Sun 11:08:07 AM 38.1333 -85.7333 228° Southwest 210 242 1,800  Level Louisville TRACON
Sun 11:09:32 AM 38.0700 -85.8211 228° Southwest 261 300 5,000 2,327 Climbing Indianapolis Center
Sun 11:10:34 AM 38.0331 -85.9008 240° Southwest 271 312 7,500 2,390 Climbing Indianapolis Center
Sun 11:11:35 AM 37.9981 -85.9856 242° Southwest 271 312 9,900 1,902 Climbing Indianapolis Center
Sun 11:12:37 AM 37.9594 -86.0831 243° Southwest 304 350 11,400 2,177 Climbing Indianapolis Center
Sun 11:13:39 AM 37.9106 -86.2050 243° Southwest 320 368 14,400 2,806 Climbing Indianapolis Center
Sun 11:14:41 AM 37.8692 -86.3161 245° Southwest 342 394 17,200 2,758 Climbing Indianapolis Center
Sun 11:15:43 AM 37.8242 -86.4225 242° Southwest 344 396 20,100 2,274 Climbing Indianapolis Center
Sun 11:16:45 AM 37.7456 -86.4544 198° South 311 358 21,900 2,226 Climbing Indianapolis Center
Sun 11:17:47 AM 37.6592 -86.4494 177° South 306 352 24,700 2,293 Climbing Indianapolis Center
Sun 11:18:48 AM 37.5728 -86.4483 179° South 307 353 26,600 2,049 Climbing Indianapolis Center
Sun 11:19:50 AM 37.4800 -86.4458 179° South 325 374 28,900 2,129 Climbing Indianapolis Center
Sun 11:20:52 AM 37.3742 -86.4436 179° South 324 373 31,000 1,105 Climbing Indianapolis Center
Sun 11:21:44 AM 37.2889 -86.4411 179° South 341 392 31,000  Level Memphis Center
Sun 11:22:44 AM 37.1783 -86.4389 179° South 382 440 31,000 200 Level Memphis Center
Sun 11:23:44 AM 37.0656 -86.4339 178° South 401 461 31,400 1,100 Climbing Memphis Center
Sun 11:24:44 AM 36.9594 -86.4314 179° South 395 455 33,200 1,300 Climbing Memphis Center
Sun 11:25:44 AM 36.8614 -86.4283 179° South 390 449 34,000 750 Climbing Memphis Center
Sun 11:26:44 AM 36.7528 -86.4286 180° South 384 442 34,700 500 Climbing Memphis Center
Sun 11:27:44 AM 36.6403 -86.4239 178° South 397 457 35,000 150 Climbing Memphis Center
Sun 11:28:44 AM 36.5233 -86.4192 178° South 410 472 35,000  Level Memphis Center
Sun 11:29:44 AM 36.4025 -86.4172 179° South 430 495 35,000 450 Level Memphis Center
Sun 11:30:44 AM 36.2731 -86.4133 179° South 430 495 35,900 500 Climbing Memphis Center
Sun 11:31:44 AM 36.1561 -86.4111 179° South 425 489 36,000 50 Climbing Memphis Center
Sun 11:32:44 AM 36.0414 -86.4064 178° South 419 482 36,000  Level Memphis Center
Sun 11:33:44 AM 35.9244 -86.4044 179° South 424 488 36,000  Level Memphis Center
Sun 11:36:09 AM 35.6353 -86.3972 179° South 422 486 36,000  Level Atlanta Center
Sun 11:37:09 AM 35.5183 -86.3939 179° South 422 486 36,000  Level Atlanta Center
Sun 11:38:09 AM 35.3994 -86.3906 179° South 422 486 36,000  Level Atlanta Center
Sun 11:39:09 AM 35.2806 -86.3897 180° South 427 491 36,000  Level Atlanta Center
Sun 11:40:09 AM 35.1847 -86.3869 179° South 427 491 36,000  Level Atlanta Center
Sun 11:41:09 AM 35.0597 -86.3833 179° South 420 483 36,000  Level Atlanta Center
Sun 11:42:09 AM 34.9406 -86.3825 180° South 420 483 36,000  Level Atlanta Center
Sun 11:43:09 AM 34.8239 -86.3767 178° South 420 483 36,000  Level Atlanta Center
Sun 11:44:09 AM 34.7069 -86.3761 180° South 420 483 36,000  Level Atlanta Center
Sun 11:45:09 AM 34.5881 -86.3753 180° South 420 483 36,000  Level Atlanta Center
Sun 11:46:09 AM 34.4714 -86.3694 178° South 420 483 36,000  Level Atlanta Center
Sun 11:47:09 AM 34.3525 -86.3686 180° South 420 483 36,000  Level Atlanta Center
Sun 11:48:09 AM 34.2336 -86.3656 179° South 420 483 36,000  Level Atlanta Center
Sun 11:49:09 AM 34.1167 -86.3597 178° South 420 483 36,000 -500 Level Atlanta Center
Sun 11:50:09 AM 34.0000 -86.3592 180° South 420 483 35,000 -500 Descending Atlanta Center
Sun 11:51:09 AM 33.8853 -86.3558 179° South 420 483 35,000  Level Atlanta Center
Sun 11:52:09 AM 33.7683 -86.3528 179° South 420 483 35,000  Level Atlanta Center
Sun 11:53:09 AM 33.6514 -86.3497 179° South 420 483 35,000  Level Atlanta Center
Sun 11:54:09 AM 33.5283 -86.3489 180° South 415 478 35,000 -350 Level Atlanta Center
Sun 11:55:09 AM 33.4136 -86.3458 179° South 415 478 34,300 -1,450 Descending Atlanta Center
Sun 11:56:09 AM 33.2947 -86.3450 180° South 421 484 32,100 -2,250 Descending Atlanta Center
Sun 11:57:09 AM 33.1800 -86.3419 179° South 421 484 29,800 -2,600 Descending Atlanta Center
Sun 11:58:09 AM 33.0653 -86.3392 179° South 421 484 26,900 -3,000 Descending Atlanta Center
Sun 11:59:09 AM 32.9525 -86.3386 180° South 416 479 23,800 -3,400 Descending Atlanta Center
Sun 12:00:09 PM 32.8439 -86.3381 180° South 409 471 20,100 -3,600 Descending Atlanta Center
Sun 12:01:09 PM 32.7419 -86.3306 176° South 387 445 16,600 -3,250 Descending Atlanta Center
Sun 12:02:09 PM 32.6417 -86.3281 179° South 374 430 13,600 -3,025 Descending Atlanta Center
Sun 12:03:10 PM 32.5497 -86.3281 180° South 350 403 10,500 -2,650 Descending Atlanta Center
Sun 12:04:09 PM 32.4706 -86.3211 176° South 318 366 8,300 -1,966 Descending Atlanta Center
Sun 12:05:09 PM 32.4064 -86.2972 163° South 278 320 6,600 -2,250 Descending Atlanta Center
Sun 12:06:09 PM 32.3639 -86.2250 125° Southeast 245 282 3,800 -2,100 Descending Atlanta Center
Sun 12:07:09 PM 32.3097 -86.2211 177° South 194 223 2,400 -750 Descending Atlanta Center
Sun 12:08:09 PM 32.2961 -86.2747 253° West 131 151 2,300 -100 Descending Atlanta Center
Sun 12:10:00 PM 32.3000 -86.3833 180° South  Level FlightAware Approximate
Sun 12:17:00 PM 32.3006 -86.3940 180° South  Level Estimated
Sun 12:18:00 PM 32.3006 -86.3940 180° South  Level Estimated

Login

Don't have an account? Register now (free) for customized features, flight alerts, and more!